Terminal Aerodrome Forecast
Issued by NWS

Home | Current Version | Previous Version | Text Only | Print | Product List | Glossary On
Versions: 1 2 3 4 5 6 7 8 9 10 11 12 13 14 15
666
FTUS46 KMFR 171120
TAFLMT
TAF
KLMT 171120Z 1712/1812 31004KT 6SM FU SKC
     FM172200 33008G13KT P6SM SKC
     FM180400 30005KT 5SM FU SKC=

USA.gov is the U.S. government's official web portal to all federal, state and local government web resources and services.